sensor_id;sensor_type;location;lat;lon;timestamp;temperature;humidity
1578;DHT22;57623;53.608;10.004;2022-09-14T00:01:24;15.20;99.90
1578;DHT22;57623;53.608;10.004;2022-09-14T00:04:41;15.20;99.90
1578;DHT22;57623;53.608;10.004;2022-09-14T00:07:59;15.20;99.90
1578;DHT22;57623;53.608;10.004;2022-09-14T00:11:13;15.20;99.90
1578;DHT22;57623;53.608;10.004;2022-09-14T00:14:06;15.10;99.90
1578;DHT22;57623;53.608;10.004;2022-09-14T00:17:06;15.20;99.90
1578;DHT22;57623;53.608;10.004;2022-09-14T00:20:12;15.20;99.90
1578;DHT22;57623;53.608;10.004;2022-09-14T00:23:12;15.10;99.90
1578;DHT22;57623;53.608;10.004;2022-09-14T00:26:34;15.00;99.90
1578;DHT22;57623;53.608;10.004;2022-09-14T00:29:43;15.00;99.90
1578;DHT22;57623;53.608;10.004;2022-09-14T00:32:42;15.00;99.90
1578;DHT22;57623;53.608;10.004;2022-09-14T00:35:58;15.00;99.90
1578;DHT22;57623;53.608;10.004;2022-09-14T00:39:30;14.90;99.90
1578;DHT22;57623;53.608;10.004;2022-09-14T00:42:31;14.90;99.90
1578;DHT22;57623;53.608;10.004;2022-09-14T00:45:34;14.90;99.90
1578;DHT22;57623;53.608;10.004;2022-09-14T00:48:58;14.90;99.90
1578;DHT22;57623;53.608;10.004;2022-09-14T00:52:18;14.80;99.90
1578;DHT22;57623;53.608;10.004;2022-09-14T00:55:24;14.80;99.90
1578;DHT22;57623;53.608;10.004;2022-09-14T00:58:24;14.70;99.90
1578;DHT22;57623;53.608;10.004;2022-09-14T01:01:26;14.70;99.90
1578;DHT22;57623;53.608;10.004;2022-09-14T01:04:19;14.70;99.90
1578;DHT22;57623;53.608;10.004;2022-09-14T01:07:33;14.70;99.90
1578;DHT22;57623;53.608;10.004;2022-09-14T01:10:51;14.70;99.90
1578;DHT22;57623;53.608;10.004;2022-09-14T01:14:10;14.70;99.90
1578;DHT22;57623;53.608;10.004;2022-09-14T01:17:41;14.70;99.90
1578;DHT22;57623;53.608;10.004;2022-09-14T01:20:45;14.60;99.90
1578;DHT22;57623;53.608;10.004;2022-09-14T01:24:15;14.60;99.90
1578;DHT22;57623;53.608;10.004;2022-09-14T01:27:37;14.60;99.90
1578;DHT22;57623;53.608;10.004;2022-09-14T01:31:05;14.50;99.90
1578;DHT22;57623;53.608;10.004;2022-09-14T01:34:07;14.50;99.90
1578;DHT22;57623;53.608;10.004;2022-09-14T01:37:06;14.50;99.90
1578;DHT22;57623;53.608;10.004;2022-09-14T01:40:12;14.40;99.90
1578;DHT22;57623;53.608;10.004;2022-09-14T01:43:26;14.40;99.90
1578;DHT22;57623;53.608;10.004;2022-09-14T01:46:36;14.30;99.90
1578;DHT22;57623;53.608;10.004;2022-09-14T01:50:00;14.30;99.90
1578;DHT22;57623;53.608;10.004;2022-09-14T01:53:04;14.20;99.90
1578;DHT22;57623;53.608;10.004;2022-09-14T01:56:13;14.20;99.90
1578;DHT22;57623;53.608;10.004;2022-09-14T01:59:53;14.20;99.90
1578;DHT22;57623;53.608;10.004;2022-09-14T02:03:06;14.20;99.90
1578;DHT22;57623;53.608;10.004;2022-09-14T02:06:25;14.10;99.90
1578;DHT22;57623;53.608;10.004;2022-09-14T02:09:40;14.10;99.90
1578;DHT22;57623;53.608;10.004;2022-09-14T02:13:02;14.10;99.90
1578;DHT22;57623;53.608;10.004;2022-09-14T02:16:31;14.00;99.90
1578;DHT22;57623;53.608;10.004;2022-09-14T02:19:43;14.00;99.90
1578;DHT22;57623;53.608;10.004;2022-09-14T02:23:08;13.90;99.90
1578;DHT22;57623;53.608;10.004;2022-09-14T02:26:09;14.00;99.90
1578;DHT22;57623;53.608;10.004;2022-09-14T02:29:16;13.90;99.90
1578;DHT22;57623;53.608;10.004;2022-09-14T02:32:57;13.90;99.90
1578;DHT22;57623;53.608;10.004;2022-09-14T02:36:00;13.80;99.90
1578;DHT22;57623;53.608;10.004;2022-09-14T02:39:18;13.80;99.90
1578;DHT22;57623;53.608;10.004;2022-09-14T02:42:35;13.80;99.90
1578;DHT22;57623;53.608;10.004;2022-09-14T02:46:08;13.80;99.90
1578;DHT22;57623;53.608;10.004;2022-09-14T02:49:14;13.80;99.90
1578;DHT22;57623;53.608;10.004;2022-09-14T02:52:29;13.80;99.90
1578;DHT22;57623;53.608;10.004;2022-09-14T02:55:40;13.70;99.90
1578;DHT22;57623;53.608;10.004;2022-09-14T02:58:59;13.60;99.90
1578;DHT22;57623;53.608;10.004;2022-09-14T03:02:02;13.60;99.90
1578;DHT22;57623;53.608;10.004;2022-09-14T03:08:20;13.60;99.90
1578;DHT22;57623;53.608;10.004;2022-09-14T03:11:19;13.50;99.90
1578;DHT22;57623;53.608;10.004;2022-09-14T03:14:19;13.50;99.90
1578;DHT22;57623;53.608;10.004;2022-09-14T03:17:32;13.60;99.90
1578;DHT22;57623;53.608;10.004;2022-09-14T03:21:11;13.60;99.90
1578;DHT22;57623;53.608;10.004;2022-09-14T03:24:19;13.50;99.90
1578;DHT22;57623;53.608;10.004;2022-09-14T03:27:26;13.50;99.90
1578;DHT22;57623;53.608;10.004;2022-09-14T03:30:52;13.60;99.90
1578;DHT22;57623;53.608;10.004;2022-09-14T03:34:11;13.50;99.90
1578;DHT22;57623;53.608;10.004;2022-09-14T03:37:22;13.50;99.90
1578;DHT22;57623;53.608;10.004;2022-09-14T03:40:25;13.50;99.90
1578;DHT22;57623;53.608;10.004;2022-09-14T03:43:56;13.40;99.90
1578;DHT22;57623;53.608;10.004;2022-09-14T03:47:19;13.40;99.90
1578;DHT22;57623;53.608;10.004;2022-09-14T03:53:38;13.40;99.90
1578;DHT22;57623;53.608;10.004;2022-09-14T03:56:43;13.30;99.90
1578;DHT22;57623;53.608;10.004;2022-09-14T04:00:09;13.40;99.90
1578;DHT22;57623;53.608;10.004;2022-09-14T04:03:13;13.30;99.90
1578;DHT22;57623;53.608;10.004;2022-09-14T04:07:08;13.30;99.90
1578;DHT22;57623;53.608;10.004;2022-09-14T04:10:12;13.30;99.90
1578;DHT22;57623;53.608;10.004;2022-09-14T04:13:24;13.20;99.90
1578;DHT22;57623;53.608;10.004;2022-09-14T04:16:40;13.20;99.90
1578;DHT22;57623;53.608;10.004;2022-09-14T04:20:05;13.20;99.90
1578;DHT22;57623;53.608;10.004;2022-09-14T04:27:07;13.20;99.90
1578;DHT22;57623;53.608;10.004;2022-09-14T04:30:22;13.20;99.90
1578;DHT22;57623;53.608;10.004;2022-09-14T04:33:24;13.20;99.90
1578;DHT22;57623;53.608;10.004;2022-09-14T04:36:27;13.20;99.90
1578;DHT22;57623;53.608;10.004;2022-09-14T04:39:37;13.20;99.90
1578;DHT22;57623;53.608;10.004;2022-09-14T04:42:42;13.20;99.90
1578;DHT22;57623;53.608;10.004;2022-09-14T04:45:59;13.20;99.90
1578;DHT22;57623;53.608;10.004;2022-09-14T04:49:11;13.20;99.90
1578;DHT22;57623;53.608;10.004;2022-09-14T04:52:10;13.30;99.90
1578;DHT22;57623;53.608;10.004;2022-09-14T04:55:27;13.30;99.90
1578;DHT22;57623;53.608;10.004;2022-09-14T04:58:46;13.40;99.90
1578;DHT22;57623;53.608;10.004;2022-09-14T05:01:57;13.40;99.90
1578;DHT22;57623;53.608;10.004;2022-09-14T05:05:07;13.50;99.90
1578;DHT22;57623;53.608;10.004;2022-09-14T05:08:04;13.60;99.90
1578;DHT22;57623;53.608;10.004;2022-09-14T05:11:13;13.60;99.90
1578;DHT22;57623;53.608;10.004;2022-09-14T05:14:15;13.60;99.90
1578;DHT22;57623;53.608;10.004;2022-09-14T05:17:30;13.70;99.90
1578;DHT22;57623;53.608;10.004;2022-09-14T05:20:43;13.70;99.90
1578;DHT22;57623;53.608;10.004;2022-09-14T05:24:14;13.70;99.90
1578;DHT22;57623;53.608;10.004;2022-09-14T05:27:11;13.70;99.90
1578;DHT22;57623;53.608;10.004;2022-09-14T05:30:43;13.80;99.90
1578;DHT22;57623;53.608;10.004;2022-09-14T05:33:56;13.80;99.90
1578;DHT22;57623;53.608;10.004;2022-09-14T05:36:59;13.80;99.90
1578;DHT22;57623;53.608;10.004;2022-09-14T05:40:02;13.80;99.90
1578;DHT22;57623;53.608;10.004;2022-09-14T05:43:08;13.90;99.90
1578;DHT22;57623;53.608;10.004;2022-09-14T05:46:14;13.90;99.90
1578;DHT22;57623;53.608;10.004;2022-09-14T05:49:36;13.90;99.90
1578;DHT22;57623;53.608;10.004;2022-09-14T05:53:09;13.90;99.90
1578;DHT22;57623;53.608;10.004;2022-09-14T05:56:24;13.90;99.90
1578;DHT22;57623;53.608;10.004;2022-09-14T06:02:26;14.00;99.90
1578;DHT22;57623;53.608;10.004;2022-09-14T06:05:17;14.00;99.90
1578;DHT22;57623;53.608;10.004;2022-09-14T06:08:07;14.00;99.90
1578;DHT22;57623;53.608;10.004;2022-09-14T06:11:02;14.10;99.90
1578;DHT22;57623;53.608;10.004;2022-09-14T06:13:50;14.10;99.90
1578;DHT22;57623;53.608;10.004;2022-09-14T06:16:41;14.10;99.90
1578;DHT22;57623;53.608;10.004;2022-09-14T06:19:37;14.20;99.90
1578;DHT22;57623;53.608;10.004;2022-09-14T06:22:30;14.20;99.90
1578;DHT22;57623;53.608;10.004;2022-09-14T06:25:24;14.20;99.90
1578;DHT22;57623;53.608;10.004;2022-09-14T06:28:13;14.30;99.90
1578;DHT22;57623;53.608;10.004;2022-09-14T06:31:05;14.30;99.90
1578;DHT22;57623;53.608;10.004;2022-09-14T06:34:01;14.30;99.90
1578;DHT22;57623;53.608;10.004;2022-09-14T06:36:52;14.40;99.90
1578;DHT22;57623;53.608;10.004;2022-09-14T06:39:43;14.40;99.90
1578;DHT22;57623;53.608;10.004;2022-09-14T06:42:34;14.40;99.90
1578;DHT22;57623;53.608;10.004;2022-09-14T06:45:24;14.50;99.90
1578;DHT22;57623;53.608;10.004;2022-09-14T06:48:12;14.50;99.90
1578;DHT22;57623;53.608;10.004;2022-09-14T06:51:11;14.60;99.90
1578;DHT22;57623;53.608;10.004;2022-09-14T06:54:05;14.60;99.90
1578;DHT22;57623;53.608;10.004;2022-09-14T06:56:59;14.70;99.90
1578;DHT22;57623;53.608;10.004;2022-09-14T06:59:47;14.70;99.90
1578;DHT22;57623;53.608;10.004;2022-09-14T07:02:35;14.80;99.90
1578;DHT22;57623;53.608;10.004;2022-09-14T07:05:26;14.80;99.90
1578;DHT22;57623;53.608;10.004;2022-09-14T07:08:15;14.80;99.90
1578;DHT22;57623;53.608;10.004;2022-09-14T07:11:06;14.80;99.90
1578;DHT22;57623;53.608;10.004;2022-09-14T07:13:59;14.80;99.90
1578;DHT22;57623;53.608;10.004;2022-09-14T07:16:51;14.90;99.90
1578;DHT22;57623;53.608;10.004;2022-09-14T07:19:41;14.90;99.90
1578;DHT22;57623;53.608;10.004;2022-09-14T07:22:33;15.00;99.90
1578;DHT22;57623;53.608;10.004;2022-09-14T07:25:21;15.10;99.90
1578;DHT22;57623;53.608;10.004;2022-09-14T07:28:16;15.10;99.90
1578;DHT22;57623;53.608;10.004;2022-09-14T07:31:17;15.30;99.90
1578;DHT22;57623;53.608;10.004;2022-09-14T07:34:05;15.40;99.90
1578;DHT22;57623;53.608;10.004;2022-09-14T07:36:53;15.40;99.90
1578;DHT22;57623;53.608;10.004;2022-09-14T07:39:42;15.40;99.90
1578;DHT22;57623;53.608;10.004;2022-09-14T07:42:30;15.50;99.90
1578;DHT22;57623;53.608;10.004;2022-09-14T07:45:26;15.50;99.90
1578;DHT22;57623;53.608;10.004;2022-09-14T07:48:14;15.60;99.90
1578;DHT22;57623;53.608;10.004;2022-09-14T07:51:04;15.60;99.90
1578;DHT22;57623;53.608;10.004;2022-09-14T07:53:57;15.70;99.90
1578;DHT22;57623;53.608;10.004;2022-09-14T07:56:51;15.70;99.90
1578;DHT22;57623;53.608;10.004;2022-09-14T07:59:43;15.70;99.90
1578;DHT22;57623;53.608;10.004;2022-09-14T08:02:37;15.80;99.90
1578;DHT22;57623;53.608;10.004;2022-09-14T08:05:26;15.90;99.90
1578;DHT22;57623;53.608;10.004;2022-09-14T08:08:16;15.90;99.90
1578;DHT22;57623;53.608;10.004;2022-09-14T08:11:13;16.10;99.90
1578;DHT22;57623;53.608;10.004;2022-09-14T08:14:04;16.10;99.90
1578;DHT22;57623;53.608;10.004;2022-09-14T08:16:55;16.10;99.90
1578;DHT22;57623;53.608;10.004;2022-09-14T08:19:46;16.20;99.90
1578;DHT22;57623;53.608;10.004;2022-09-14T08:22:39;16.30;99.90
1578;DHT22;57623;53.608;10.004;2022-09-14T08:25:27;16.30;99.90
1578;DHT22;57623;53.608;10.004;2022-09-14T08:28:15;16.30;99.90
1578;DHT22;57623;53.608;10.004;2022-09-14T08:31:07;16.30;99.90
1578;DHT22;57623;53.608;10.004;2022-09-14T08:33:57;16.40;99.90
1578;DHT22;57623;53.608;10.004;2022-09-14T08:36:50;16.50;99.90
1578;DHT22;57623;53.608;10.004;2022-09-14T08:39:38;16.50;99.90
1578;DHT22;57623;53.608;10.004;2022-09-14T08:42:29;16.60;99.90
1578;DHT22;57623;53.608;10.004;2022-09-14T08:45:22;16.60;99.90
1578;DHT22;57623;53.608;10.004;2022-09-14T08:48:19;16.70;99.90
1578;DHT22;57623;53.608;10.004;2022-09-14T08:51:10;16.90;99.90
1578;DHT22;57623;53.608;10.004;2022-09-14T08:54:01;16.90;99.90
1578;DHT22;57623;53.608;10.004;2022-09-14T08:56:55;16.90;99.90
1578;DHT22;57623;53.608;10.004;2022-09-14T08:59:58;16.90;99.90
1578;DHT22;57623;53.608;10.004;2022-09-14T09:03:17;17.00;99.90
1578;DHT22;57623;53.608;10.004;2022-09-14T09:06:15;17.10;99.90
1578;DHT22;57623;53.608;10.004;2022-09-14T09:09:18;17.10;99.90
1578;DHT22;57623;53.608;10.004;2022-09-14T09:12:16;17.20;99.90
1578;DHT22;57623;53.608;10.004;2022-09-14T09:15:19;17.30;99.90
1578;DHT22;57623;53.608;10.004;2022-09-14T09:18:15;17.30;99.90
1578;DHT22;57623;53.608;10.004;2022-09-14T09:21:08;17.40;99.90
1578;DHT22;57623;53.608;10.004;2022-09-14T09:24:07;17.40;99.90
1578;DHT22;57623;53.608;10.004;2022-09-14T09:27:09;17.50;99.90
1578;DHT22;57623;53.608;10.004;2022-09-14T09:30:02;17.60;99.90
1578;DHT22;57623;53.608;10.004;2022-09-14T09:32:56;17.70;99.90
1578;DHT22;57623;53.608;10.004;2022-09-14T09:35:51;17.80;99.90
1578;DHT22;57623;53.608;10.004;2022-09-14T09:38:40;17.80;99.90
1578;DHT22;57623;53.608;10.004;2022-09-14T09:41:33;17.80;99.90
1578;DHT22;57623;53.608;10.004;2022-09-14T09:44:24;17.90;99.90
1578;DHT22;57623;53.608;10.004;2022-09-14T09:47:16;18.00;99.90
1578;DHT22;57623;53.608;10.004;2022-09-14T09:50:17;17.90;99.90
1578;DHT22;57623;53.608;10.004;2022-09-14T09:53:14;18.00;99.90
1578;DHT22;57623;53.608;10.004;2022-09-14T09:56:06;18.00;99.90
1578;DHT22;57623;53.608;10.004;2022-09-14T09:58:59;18.00;99.90
1578;DHT22;57623;53.608;10.004;2022-09-14T10:05:26;18.30;99.90
1578;DHT22;57623;53.608;10.004;2022-09-14T10:08:22;18.30;99.90
1578;DHT22;57623;53.608;10.004;2022-09-14T10:11:31;18.20;99.90
1578;DHT22;57623;53.608;10.004;2022-09-14T10:14:26;18.20;99.90
1578;DHT22;57623;53.608;10.004;2022-09-14T10:17:20;18.20;99.90
1578;DHT22;57623;53.608;10.004;2022-09-14T10:20:20;18.10;99.90
1578;DHT22;57623;53.608;10.004;2022-09-14T10:23:22;18.10;99.90
1578;DHT22;57623;53.608;10.004;2022-09-14T10:26:28;18.10;99.90
1578;DHT22;57623;53.608;10.004;2022-09-14T10:29:40;18.10;99.90
1578;DHT22;57623;53.608;10.004;2022-09-14T10:32:33;18.10;99.90
1578;DHT22;57623;53.608;10.004;2022-09-14T10:35:38;18.10;99.90
1578;DHT22;57623;53.608;10.004;2022-09-14T10:38:38;18.10;99.90
1578;DHT22;57623;53.608;10.004;2022-09-14T10:41:38;18.00;99.90
1578;DHT22;57623;53.608;10.004;2022-09-14T10:44:50;18.00;99.90
1578;DHT22;57623;53.608;10.004;2022-09-14T10:51:04;17.90;99.90
1578;DHT22;57623;53.608;10.004;2022-09-14T10:54:17;17.90;99.90
1578;DHT22;57623;53.608;10.004;2022-09-14T10:57:15;17.90;99.90
1578;DHT22;57623;53.608;10.004;2022-09-14T11:00:11;17.90;99.90
1578;DHT22;57623;53.608;10.004;2022-09-14T11:03:18;17.90;99.90
1578;DHT22;57623;53.608;10.004;2022-09-14T11:06:28;18.00;99.90
1578;DHT22;57623;53.608;10.004;2022-09-14T11:09:32;18.00;99.90
1578;DHT22;57623;53.608;10.004;2022-09-14T11:12:37;18.20;99.90
1578;DHT22;57623;53.608;10.004;2022-09-14T11:15:39;18.40;99.90
1578;DHT22;57623;53.608;10.004;2022-09-14T11:18:42;18.60;99.90
1578;DHT22;57623;53.608;10.004;2022-09-14T11:21:42;18.80;99.90
1578;DHT22;57623;53.608;10.004;2022-09-14T11:24:46;18.90;99.90
1578;DHT22;57623;53.608;10.004;2022-09-14T11:27:39;19.00;99.90
1578;DHT22;57623;53.608;10.004;2022-09-14T11:30:35;19.10;99.90
1578;DHT22;57623;53.608;10.004;2022-09-14T11:33:42;19.10;99.90
1578;DHT22;57623;53.608;10.004;2022-09-14T11:36:36;19.10;99.90
1578;DHT22;57623;53.608;10.004;2022-09-14T11:39:28;19.00;99.90
1578;DHT22;57623;53.608;10.004;2022-09-14T11:42:24;18.90;99.90
1578;DHT22;57623;53.608;10.004;2022-09-14T11:45:19;18.90;99.90
1578;DHT22;57623;53.608;10.004;2022-09-14T11:48:27;18.90;99.90
1578;DHT22;57623;53.608;10.004;2022-09-14T11:51:37;18.80;99.90
1578;DHT22;57623;53.608;10.004;2022-09-14T11:54:28;18.70;99.90
1578;DHT22;57623;53.608;10.004;2022-09-14T11:57:18;18.60;99.90
1578;DHT22;57623;53.608;10.004;2022-09-14T12:04:07;18.60;99.90
1578;DHT22;57623;53.608;10.004;2022-09-14T12:07:01;18.60;99.90
1578;DHT22;57623;53.608;10.004;2022-09-14T12:10:18;18.60;99.90
1578;DHT22;57623;53.608;10.004;2022-09-14T12:13:21;18.60;99.90
1578;DHT22;57623;53.608;10.004;2022-09-14T12:16:11;18.50;99.90
1578;DHT22;57623;53.608;10.004;2022-09-14T12:19:01;18.50;99.90
1578;DHT22;57623;53.608;10.004;2022-09-14T12:21:55;18.40;99.90
1578;DHT22;57623;53.608;10.004;2022-09-14T12:24:45;18.50;99.90
1578;DHT22;57623;53.608;10.004;2022-09-14T12:27:54;18.60;99.90
1578;DHT22;57623;53.608;10.004;2022-09-14T12:31:05;18.60;99.90
1578;DHT22;57623;53.608;10.004;2022-09-14T12:34:18;18.90;99.90
1578;DHT22;57623;53.608;10.004;2022-09-14T12:37:29;19.10;99.90
1578;DHT22;57623;53.608;10.004;2022-09-14T12:40:31;19.20;99.90
1578;DHT22;57623;53.608;10.004;2022-09-14T12:43:53;19.10;99.90
1578;DHT22;57623;53.608;10.004;2022-09-14T12:46:43;19.10;99.90
1578;DHT22;57623;53.608;10.004;2022-09-14T12:49:34;18.90;99.90
1578;DHT22;57623;53.608;10.004;2022-09-14T12:52:34;18.90;99.90
1578;DHT22;57623;53.608;10.004;2022-09-14T12:55:41;18.80;99.90
1578;DHT22;57623;53.608;10.004;2022-09-14T12:58:51;18.70;99.90
1578;DHT22;57623;53.608;10.004;2022-09-14T13:01:53;18.70;99.90
1578;DHT22;57623;53.608;10.004;2022-09-14T13:04:52;18.70;99.90
1578;DHT22;57623;53.608;10.004;2022-09-14T13:07:47;18.80;99.90
1578;DHT22;57623;53.608;10.004;2022-09-14T13:10:36;18.80;99.90
1578;DHT22;57623;53.608;10.004;2022-09-14T13:13:34;18.90;99.90
1578;DHT22;57623;53.608;10.004;2022-09-14T13:16:36;19.10;99.90
1578;DHT22;57623;53.608;10.004;2022-09-14T13:19:34;19.20;99.90
1578;DHT22;57623;53.608;10.004;2022-09-14T13:22:26;19.20;99.90
1578;DHT22;57623;53.608;10.004;2022-09-14T13:25:29;19.10;99.90
1578;DHT22;57623;53.608;10.004;2022-09-14T13:28:26;19.20;99.90
1578;DHT22;57623;53.608;10.004;2022-09-14T13:31:29;19.10;99.90
1578;DHT22;57623;53.608;10.004;2022-09-14T13:34:25;19.10;99.90
1578;DHT22;57623;53.608;10.004;2022-09-14T13:37:27;19.00;99.90
1578;DHT22;57623;53.608;10.004;2022-09-14T13:40:23;19.00;99.90
1578;DHT22;57623;53.608;10.004;2022-09-14T13:43:22;19.00;99.90
1578;DHT22;57623;53.608;10.004;2022-09-14T13:46:14;19.00;99.90
1578;DHT22;57623;53.608;10.004;2022-09-14T13:49:11;18.90;99.90
1578;DHT22;57623;53.608;10.004;2022-09-14T13:52:23;18.90;99.90
1578;DHT22;57623;53.608;10.004;2022-09-14T13:55:53;18.90;99.90
1578;DHT22;57623;53.608;10.004;2022-09-14T13:58:47;18.90;99.90
1578;DHT22;57623;53.608;10.004;2022-09-14T14:01:52;18.90;99.90
1578;DHT22;57623;53.608;10.004;2022-09-14T14:04:47;18.90;99.90
1578;DHT22;57623;53.608;10.004;2022-09-14T14:07:44;18.90;99.90
1578;DHT22;57623;53.608;10.004;2022-09-14T14:10:46;18.90;99.90
1578;DHT22;57623;53.608;10.004;2022-09-14T14:13:39;18.90;99.90
1578;DHT22;57623;53.608;10.004;2022-09-14T14:16:29;19.00;99.90
1578;DHT22;57623;53.608;10.004;2022-09-14T14:19:28;18.90;99.90
1578;DHT22;57623;53.608;10.004;2022-09-14T14:22:30;19.00;99.90
1578;DHT22;57623;53.608;10.004;2022-09-14T14:25:28;19.00;99.90
1578;DHT22;57623;53.608;10.004;2022-09-14T14:28:22;19.00;99.90
1578;DHT22;57623;53.608;10.004;2022-09-14T14:31:17;19.10;99.90
1578;DHT22;57623;53.608;10.004;2022-09-14T14:34:17;19.10;99.90
1578;DHT22;57623;53.608;10.004;2022-09-14T14:37:08;19.10;99.90
1578;DHT22;57623;53.608;10.004;2022-09-14T14:39:59;19.10;99.90
1578;DHT22;57623;53.608;10.004;2022-09-14T14:42:52;19.10;99.90
1578;DHT22;57623;53.608;10.004;2022-09-14T14:45:44;19.10;99.90
1578;DHT22;57623;53.608;10.004;2022-09-14T14:48:41;19.10;99.90
1578;DHT22;57623;53.608;10.004;2022-09-14T14:51:35;19.20;99.90
1578;DHT22;57623;53.608;10.004;2022-09-14T14:54:28;19.10;99.90
1578;DHT22;57623;53.608;10.004;2022-09-14T14:57:18;19.20;99.90
1578;DHT22;57623;53.608;10.004;2022-09-14T15:00:12;19.40;99.90
1578;DHT22;57623;53.608;10.004;2022-09-14T15:03:09;19.50;99.90
1578;DHT22;57623;53.608;10.004;2022-09-14T15:06:10;19.70;99.90
1578;DHT22;57623;53.608;10.004;2022-09-14T15:09:03;19.70;99.90
1578;DHT22;57623;53.608;10.004;2022-09-14T15:12:01;19.70;99.90
1578;DHT22;57623;53.608;10.004;2022-09-14T15:15:00;19.70;99.90
1578;DHT22;57623;53.608;10.004;2022-09-14T15:17:57;19.70;99.90
1578;DHT22;57623;53.608;10.004;2022-09-14T15:20:49;19.70;99.90
1578;DHT22;57623;53.608;10.004;2022-09-14T15:23:37;19.70;99.90
1578;DHT22;57623;53.608;10.004;2022-09-14T15:26:30;19.50;99.90
1578;DHT22;57623;53.608;10.004;2022-09-14T15:29:24;19.50;99.90
1578;DHT22;57623;53.608;10.004;2022-09-14T15:32:15;19.50;99.90
1578;DHT22;57623;53.608;10.004;2022-09-14T15:35:11;19.40;99.90
1578;DHT22;57623;53.608;10.004;2022-09-14T15:38:08;19.30;99.90
1578;DHT22;57623;53.608;10.004;2022-09-14T15:40:59;19.20;99.90
1578;DHT22;57623;53.608;10.004;2022-09-14T15:43:50;19.20;99.90
1578;DHT22;57623;53.608;10.004;2022-09-14T15:46:38;19.10;99.90
1578;DHT22;57623;53.608;10.004;2022-09-14T15:49:42;19.10;99.90
1578;DHT22;57623;53.608;10.004;2022-09-14T15:52:36;19.00;99.90
1578;DHT22;57623;53.608;10.004;2022-09-14T15:55:28;19.00;99.90
1578;DHT22;57623;53.608;10.004;2022-09-14T15:58:23;19.00;99.90
1578;DHT22;57623;53.608;10.004;2022-09-14T16:01:17;18.90;99.90
1578;DHT22;57623;53.608;10.004;2022-09-14T16:04:09;18.90;99.90
1578;DHT22;57623;53.608;10.004;2022-09-14T16:06:59;18.90;99.90
1578;DHT22;57623;53.608;10.004;2022-09-14T16:09:49;18.90;99.90
1578;DHT22;57623;53.608;10.004;2022-09-14T16:12:40;18.90;99.90
1578;DHT22;57623;53.608;10.004;2022-09-14T16:15:31;18.80;99.90
1578;DHT22;57623;53.608;10.004;2022-09-14T16:18:20;18.70;99.90
1578;DHT22;57623;53.608;10.004;2022-09-14T16:21:26;18.60;99.90
1578;DHT22;57623;53.608;10.004;2022-09-14T16:24:21;18.60;99.90
1578;DHT22;57623;53.608;10.004;2022-09-14T16:27:14;18.60;99.90
1578;DHT22;57623;53.608;10.004;2022-09-14T16:30:09;18.60;99.90
1578;DHT22;57623;53.608;10.004;2022-09-14T16:33:02;18.50;99.90
1578;DHT22;57623;53.608;10.004;2022-09-14T16:36:04;18.50;99.90
1578;DHT22;57623;53.608;10.004;2022-09-14T16:38:59;18.50;99.90
1578;DHT22;57623;53.608;10.004;2022-09-14T16:41:59;18.40;99.90
1578;DHT22;57623;53.608;10.004;2022-09-14T16:44:53;18.40;99.90
1578;DHT22;57623;53.608;10.004;2022-09-14T16:47:42;18.30;99.90
1578;DHT22;57623;53.608;10.004;2022-09-14T16:50:41;18.20;99.90
1578;DHT22;57623;53.608;10.004;2022-09-14T16:53:47;18.20;99.90
1578;DHT22;57623;53.608;10.004;2022-09-14T16:56:49;18.20;99.90
1578;DHT22;57623;53.608;10.004;2022-09-14T16:59:43;18.10;99.90
1578;DHT22;57623;53.608;10.004;2022-09-14T17:02:32;18.10;99.90
1578;DHT22;57623;53.608;10.004;2022-09-14T17:05:21;18.00;99.90
1578;DHT22;57623;53.608;10.004;2022-09-14T17:08:09;18.00;99.90
1578;DHT22;57623;53.608;10.004;2022-09-14T17:10:57;18.00;99.90
1578;DHT22;57623;53.608;10.004;2022-09-14T17:13:46;17.90;99.90
1578;DHT22;57623;53.608;10.004;2022-09-14T17:16:34;17.80;99.90
1578;DHT22;57623;53.608;10.004;2022-09-14T17:19:27;17.80;99.90
1578;DHT22;57623;53.608;10.004;2022-09-14T17:22:16;17.80;99.90
1578;DHT22;57623;53.608;10.004;2022-09-14T17:25:05;17.70;99.90
1578;DHT22;57623;53.608;10.004;2022-09-14T17:27:53;17.50;99.90
1578;DHT22;57623;53.608;10.004;2022-09-14T17:30:42;17.50;99.90
1578;DHT22;57623;53.608;10.004;2022-09-14T17:33:30;17.50;99.90
1578;DHT22;57623;53.608;10.004;2022-09-14T17:36:23;17.50;99.90
1578;DHT22;57623;53.608;10.004;2022-09-14T17:39:12;17.40;99.90
1578;DHT22;57623;53.608;10.004;2022-09-14T17:42:02;17.30;99.90
1578;DHT22;57623;53.608;10.004;2022-09-14T17:44:51;17.30;99.90
1578;DHT22;57623;53.608;10.004;2022-09-14T17:47:39;17.30;99.90
1578;DHT22;57623;53.608;10.004;2022-09-14T17:50:27;17.20;99.90
1578;DHT22;57623;53.608;10.004;2022-09-14T17:53:17;17.20;99.90
1578;DHT22;57623;53.608;10.004;2022-09-14T17:56:09;17.20;99.90
1578;DHT22;57623;53.608;10.004;2022-09-14T17:59:01;17.10;99.90
1578;DHT22;57623;53.608;10.004;2022-09-14T18:01:50;17.00;99.90
1578;DHT22;57623;53.608;10.004;2022-09-14T18:04:38;16.90;99.90
1578;DHT22;57623;53.608;10.004;2022-09-14T18:07:29;16.90;99.90
1578;DHT22;57623;53.608;10.004;2022-09-14T18:10:19;16.80;99.90
1578;DHT22;57623;53.608;10.004;2022-09-14T18:13:07;16.80;99.90
1578;DHT22;57623;53.608;10.004;2022-09-14T18:15:55;16.70;99.90
1578;DHT22;57623;53.608;10.004;2022-09-14T18:18:44;16.70;99.90
1578;DHT22;57623;53.608;10.004;2022-09-14T18:21:32;16.60;99.90
1578;DHT22;57623;53.608;10.004;2022-09-14T18:24:20;16.60;99.90
1578;DHT22;57623;53.608;10.004;2022-09-14T18:27:10;16.60;99.90
1578;DHT22;57623;53.608;10.004;2022-09-14T18:30:01;16.50;99.90
1578;DHT22;57623;53.608;10.004;2022-09-14T18:32:49;16.60;99.90
1578;DHT22;57623;53.608;10.004;2022-09-14T18:35:41;16.50;99.90
1578;DHT22;57623;53.608;10.004;2022-09-14T18:38:32;16.50;99.90
1578;DHT22;57623;53.608;10.004;2022-09-14T18:41:22;16.50;99.90
1578;DHT22;57623;53.608;10.004;2022-09-14T18:44:16;16.50;99.90
1578;DHT22;57623;53.608;10.004;2022-09-14T18:47:10;16.40;99.90
1578;DHT22;57623;53.608;10.004;2022-09-14T18:50:05;16.40;99.90
1578;DHT22;57623;53.608;10.004;2022-09-14T18:52:53;16.40;99.90
1578;DHT22;57623;53.608;10.004;2022-09-14T18:55:46;16.30;99.90
1578;DHT22;57623;53.608;10.004;2022-09-14T18:58:44;16.30;99.90
1578;DHT22;57623;53.608;10.004;2022-09-14T19:01:36;16.30;99.90
1578;DHT22;57623;53.608;10.004;2022-09-14T19:04:26;16.20;99.90
1578;DHT22;57623;53.608;10.004;2022-09-14T19:07:21;16.20;99.90
1578;DHT22;57623;53.608;10.004;2022-09-14T19:10:12;16.20;99.90
1578;DHT22;57623;53.608;10.004;2022-09-14T19:13:04;16.10;99.90
1578;DHT22;57623;53.608;10.004;2022-09-14T19:15:56;16.10;99.90
1578;DHT22;57623;53.608;10.004;2022-09-14T19:18:47;16.00;99.90
1578;DHT22;57623;53.608;10.004;2022-09-14T19:21:45;16.00;99.90